createdAt,value
2018-07-17T00:00:00.367Z,790.22
2018-07-17T00:00:04.271Z,790.16
2018-07-17T00:00:08.478Z,790.13
2018-07-17T00:00:12.582Z,790.18
2018-07-17T00:00:16.823Z,790.17
2018-07-17T00:00:21.044Z,790.1
2018-07-17T00:00:25.371Z,790.16
2018-07-17T00:00:29.681Z,790.11
2018-07-17T00:00:33.682Z,790.11
2018-07-17T00:00:37.902Z,790.12
2018-07-17T00:00:42.008Z,790.09
2018-07-17T00:00:46.214Z,790.12
2018-07-17T00:00:50.526Z,790.12
2018-07-17T00:00:54.845Z,790.1
2018-07-17T00:00:59.166Z,790.09
2018-07-17T00:01:03.473Z,790.09
2018-07-17T00:01:07.359Z,790.02
2018-07-17T00:01:11.681Z,790.07
2018-07-17T00:01:15.885Z,790.02
2018-07-17T00:01:19.982Z,790.08
2018-07-17T00:01:24.196Z,790.05
2018-07-17T00:01:28.398Z,790
2018-07-17T00:01:32.676Z,790
2018-07-17T00:01:36.999Z,790.03
2018-07-17T00:01:41.332Z,789.97
2018-07-17T00:01:45.537Z,789.94
2018-07-17T00:01:49.756Z,790
2018-07-17T00:01:54.081Z,790.01
2018-07-17T00:01:58.286Z,789.99
2018-07-17T00:02:02.599Z,789.99
2018-07-17T00:02:06.592Z,789.97
2018-07-17T00:02:10.693Z,789.92
2018-07-17T00:02:15.013Z,789.96
2018-07-17T00:02:19.222Z,789.96
2018-07-17T00:02:23.590Z,789.92
2018-07-17T00:02:27.789Z,789.92
2018-07-17T00:02:32.101Z,789.91
2018-07-17T00:02:36.420Z,789.9
2018-07-17T00:02:40.620Z,789.9
2018-07-17T00:02:44.932Z,789.89
2018-07-17T00:02:49.051Z,789.89
2018-07-17T00:02:53.048Z,789.88
2018-07-17T00:02:57.275Z,789.87
2018-07-17T00:03:01.594Z,789.89
2018-07-17T00:03:05.853Z,789.82
2018-07-17T00:03:10.163Z,789.89
2018-07-17T00:03:14.256Z,789.87
2018-07-17T00:03:18.578Z,789.85
2018-07-17T00:03:22.788Z,789.85
2018-07-17T00:03:27.094Z,789.84
2018-07-17T00:03:31.298Z,789.83
2018-07-17T00:03:35.393Z,789.84
2018-07-17T00:03:39.701Z,789.85
2018-07-17T00:03:44.015Z,789.83
2018-07-17T00:03:48.374Z,789.82
2018-07-17T00:03:52.684Z,789.82
2018-07-17T00:03:56.884Z,789.84
2018-07-17T00:04:01.196Z,789.81
2018-07-17T00:04:05.401Z,789.83
2018-07-17T00:04:09.501Z,789.77
2018-07-17T00:04:13.816Z,789.78
2018-07-17T00:04:18.145Z,789.79
2018-07-17T00:04:22.459Z,789.72
2018-07-17T00:04:26.453Z,789.75
2018-07-17T00:04:30.659Z,789.77
2018-07-17T00:04:34.755Z,789.74
2018-07-17T00:04:39.063Z,789.77
2018-07-17T00:04:43.264Z,789.76
2018-07-17T00:04:47.573Z,789.74
2018-07-17T00:04:51.886Z,789.75
2018-07-17T00:04:55.980Z,789.74
2018-07-17T00:05:00.178Z,789.74
2018-07-17T00:05:04.282Z,789.72
2018-07-17T00:05:08.273Z,789.73
2018-07-17T00:05:12.477Z,789.72
2018-07-17T00:05:16.575Z,789.74
2018-07-17T00:05:20.889Z,789.71
2018-07-17T00:05:25.138Z,789.73
2018-07-17T00:05:29.454Z,789.7
2018-07-17T00:05:33.657Z,789.69
2018-07-17T00:05:37.863Z,789.7
2018-07-17T00:05:42.173Z,789.7
2018-07-17T00:05:46.496Z,789.69
2018-07-17T00:05:50.812Z,789.68
2018-07-17T00:05:54.804Z,789.66
2018-07-17T00:05:58.905Z,789.65
2018-07-17T00:06:03.001Z,789.66
2018-07-17T00:06:06.994Z,789.68
2018-07-17T00:06:10.986Z,789.68
2018-07-17T00:06:15.188Z,789.68
2018-07-17T00:06:19.177Z,789.67
2018-07-17T00:06:23.376Z,789.62
2018-07-17T00:06:27.691Z,789.67
2018-07-17T00:06:31.782Z,789.65
2018-07-17T00:06:35.880Z,789.61
2018-07-17T00:06:39.982Z,789.61
2018-07-17T00:06:44.080Z,789.68
2018-07-17T00:06:48.395Z,789.64
2018-07-17T00:06:52.698Z,789.66
2018-07-17T00:06:57.003Z,789.64
2018-07-17T00:07:01.323Z,789.63
2018-07-17T00:07:05.423Z,789.63
2018-07-17T00:07:09.566Z,789.65
2018-07-17T00:07:13.775Z,789.64
2018-07-17T00:07:18.090Z,789.6
2018-07-17T00:07:22.299Z,789.64
2018-07-17T00:07:26.500Z,789.59
2018-07-17T00:07:30.710Z,789.58
2018-07-17T00:07:34.910Z,789.58
2018-07-17T00:07:39.013Z,789.57
2018-07-17T00:07:43.120Z,789.56
2018-07-17T00:07:47.317Z,789.58
2018-07-17T00:07:51.312Z,789.56
2018-07-17T00:07:55.628Z,789.57
2018-07-17T00:07:59.730Z,789.57
2018-07-17T00:08:03.935Z,789.55
2018-07-17T00:08:08.129Z,789.55
2018-07-17T00:08:12.335Z,789.54
2018-07-17T00:08:16.437Z,789.54
2018-07-17T00:08:20.799Z,789.57
2018-07-17T00:08:25.004Z,789.57
2018-07-17T00:08:29.206Z,789.56
2018-07-17T00:08:33.405Z,789.56
2018-07-17T00:08:37.711Z,789.53
2018-07-17T00:08:41.702Z,789.56
2018-07-17T00:08:45.690Z,789.52
2018-07-17T00:08:49.898Z,789.52
2018-07-17T00:08:53.888Z,789.51
2018-07-17T00:08:58.203Z,789.52
2018-07-17T00:09:02.404Z,789.51
2018-07-17T00:09:06.630Z,789.52
2018-07-17T00:09:10.625Z,789.54
2018-07-17T00:09:14.938Z,789.5
2018-07-17T00:09:18.928Z,789.51
2018-07-17T00:09:23.133Z,789.5
2018-07-17T00:09:27.239Z,789.49
2018-07-17T00:09:31.742Z,789.48
2018-07-17T00:09:36.305Z,789.46
2018-07-17T00:09:40.757Z,789.49
2018-07-17T00:09:45.805Z,789.47
2018-07-17T00:09:50.254Z,789.5
2018-07-17T00:09:54.568Z,789.48
2018-07-17T00:09:58.888Z,789.5
2018-07-17T00:10:03.091Z,789.49
2018-07-17T00:10:07.314Z,789.47
2018-07-17T00:10:11.525Z,789.47
2018-07-17T00:10:15.732Z,789.47
2018-07-17T00:10:19.945Z,789.46
2018-07-17T00:10:24.150Z,789.46
2018-07-17T00:10:28.456Z,789.47
2018-07-17T00:10:32.662Z,789.46
2018-07-17T00:10:36.861Z,789.42
2018-07-17T00:10:41.174Z,789.44
2018-07-17T00:10:45.486Z,789.47
2018-07-17T00:10:49.689Z,789.44
2018-07-17T00:10:53.998Z,789.43
2018-07-17T00:10:58.260Z,789.44
2018-07-17T00:11:02.357Z,789.44
2018-07-17T00:11:06.565Z,789.41
2018-07-17T00:11:10.880Z,789.42
2018-07-17T00:11:15.091Z,789.41
2018-07-17T00:11:19.427Z,789.43
2018-07-17T00:11:23.636Z,789.42
2018-07-17T00:11:27.951Z,789.46
2018-07-17T00:11:32.261Z,789.43
2018-07-17T00:11:36.247Z,789.44
2018-07-17T00:11:40.348Z,789.44
2018-07-17T00:11:44.446Z,789.42
2018-07-17T00:11:48.541Z,789.45
2018-07-17T00:11:52.853Z,789.38
2018-07-17T00:11:56.953Z,789.41
2018-07-17T00:12:01.207Z,789.41
2018-07-17T00:12:05.313Z,789.43
2018-07-17T00:12:09.301Z,789.43
2018-07-17T00:12:13.399Z,789.45
2018-07-17T00:12:17.491Z,789.42
2018-07-17T00:12:21.702Z,789.36
2018-07-17T00:12:26.008Z,789.38
2018-07-17T00:12:30.221Z,789.39
2018-07-17T00:12:34.578Z,789.4
2018-07-17T00:12:39.061Z,789.42
2018-07-17T00:12:43.815Z,789.42
2018-07-17T00:12:48.338Z,789.41
2018-07-17T00:12:52.686Z,789.43
2018-07-17T00:12:56.897Z,789.41
2018-07-17T00:13:01.215Z,789.44
2018-07-17T00:13:05.425Z,789.42
2018-07-17T00:13:09.641Z,789.42
2018-07-17T00:13:13.847Z,789.43
2018-07-17T00:13:18.054Z,789.44
2018-07-17T00:13:22.373Z,789.4
2018-07-17T00:13:26.680Z,789.46
2018-07-17T00:13:30.993Z,789.43
2018-07-17T00:13:35.203Z,789.37
2018-07-17T00:13:39.508Z,789.41
2018-07-17T00:13:43.613Z,789.42
2018-07-17T00:13:47.711Z,789.42
2018-07-17T00:13:51.912Z,789.41
2018-07-17T00:13:56.224Z,789.42
2018-07-17T00:14:00.529Z,789.41
2018-07-17T00:14:04.521Z,789.41
2018-07-17T00:14:08.725Z,789.39
2018-07-17T00:14:12.932Z,789.42
2018-07-17T00:14:16.709Z,789.4
2018-07-17T00:14:21.021Z,789.4
2018-07-17T00:14:25.328Z,789.44
2018-07-17T00:14:29.424Z,789.4
2018-07-17T00:14:33.520Z,789.43
2018-07-17T00:14:37.722Z,789.43
2018-07-17T00:14:41.824Z,789.36
2018-07-17T00:14:46.139Z,789.38
2018-07-17T00:14:50.345Z,789.41
2018-07-17T00:14:54.656Z,789.44
2018-07-17T00:14:58.756Z,789.43
2018-07-17T00:15:02.965Z,789.43
2018-07-17T00:15:07.176Z,789.42
2018-07-17T00:15:11.377Z,789.43
2018-07-17T00:15:15.582Z,789.41
2018-07-17T00:15:19.796Z,789.44
2018-07-17T00:15:23.890Z,789.43
2018-07-17T00:15:28.096Z,789.43
2018-07-17T00:15:32.194Z,789.43
2018-07-17T00:15:36.516Z,789.45
2018-07-17T00:15:40.613Z,789.43
2018-07-17T00:15:44.707Z,789.43
2018-07-17T00:15:49.073Z,789.38
2018-07-17T00:15:53.275Z,789.43
2018-07-17T00:15:57.476Z,789.45
2018-07-17T00:16:01.681Z,789.43
2018-07-17T00:16:05.891Z,789.46
2018-07-17T00:16:10.212Z,789.43
2018-07-17T00:16:14.419Z,789.45
2018-07-17T00:16:18.519Z,789.43
2018-07-17T00:16:22.826Z,789.46
2018-07-17T00:16:27.039Z,789.44
2018-07-17T00:16:31.240Z,789.46
2018-07-17T00:16:35.550Z,789.43
2018-07-17T00:16:39.752Z,789.4
2018-07-17T00:16:44.016Z,789.45
2018-07-17T00:16:48.219Z,789.45
2018-07-17T00:16:52.423Z,789.41
2018-07-17T00:16:56.516Z,789.44
2018-07-17T00:17:00.722Z,789.41
2018-07-17T00:17:04.717Z,789.46
2018-07-17T00:17:09.092Z,789.44
2018-07-17T00:17:13.299Z,789.44
2018-07-17T00:17:17.611Z,789.45
2018-07-17T00:17:21.705Z,789.42
2018-07-17T00:17:25.919Z,789.43
2018-07-17T00:17:30.231Z,789.46
2018-07-17T00:17:34.541Z,789.43
2018-07-17T00:17:38.756Z,789.45
2018-07-17T00:17:42.958Z,789.43
2018-07-17T00:17:46.959Z,789.43
2018-07-17T00:17:51.053Z,789.45
2018-07-17T00:17:55.147Z,789.46
2018-07-17T00:17:59.351Z,789.4
2018-07-17T00:18:03.450Z,789.44
2018-07-17T00:18:07.760Z,789.45
2018-07-17T00:18:11.856Z,789.4
2018-07-17T00:18:16.065Z,789.42
2018-07-17T00:18:20.369Z,789.42
2018-07-17T00:18:24.700Z,789.43
2018-07-17T00:18:28.902Z,789.44
2018-07-17T00:18:33.104Z,789.39
2018-07-17T00:18:37.431Z,789.45
2018-07-17T00:18:41.753Z,789.45
2018-07-17T00:18:45.957Z,789.43
2018-07-17T00:18:50.175Z,789.41
2018-07-17T00:18:54.373Z,789.39
2018-07-17T00:18:58.367Z,789.42
2018-07-17T00:19:02.420Z,789.44
2018-07-17T00:19:06.738Z,789.41
2018-07-17T00:19:10.947Z,789.43
2018-07-17T00:19:15.144Z,789.41
2018-07-17T00:19:19.351Z,789.41
2018-07-17T00:19:23.562Z,789.42
2018-07-17T00:19:27.453Z,789.37
2018-07-17T00:19:31.656Z,789.41
2018-07-17T00:19:35.967Z,789.43
2018-07-17T00:19:40.180Z,789.37
2018-07-17T00:19:44.277Z,789.39
2018-07-17T00:19:48.594Z,789.39
2018-07-17T00:19:52.801Z,789.33
2018-07-17T00:19:56.899Z,789.37
2018-07-17T00:20:01.108Z,789.37
2018-07-17T00:20:05.097Z,789.38
2018-07-17T00:20:09.325Z,789.33
2018-07-17T00:20:13.553Z,789.36
2018-07-17T00:20:17.754Z,789.4
2018-07-17T00:20:21.959Z,789.37
2018-07-17T00:20:26.163Z,789.38
2018-07-17T00:20:30.476Z,789.39
2018-07-17T00:20:34.671Z,789.37
2018-07-17T00:20:38.975Z,789.33
2018-07-17T00:20:43.179Z,789.34
2018-07-17T00:20:47.494Z,789.38
2018-07-17T00:20:51.703Z,789.36
2018-07-17T00:20:56.019Z,789.35
2018-07-17T00:21:00.224Z,789.37
2018-07-17T00:21:04.116Z,789.33
2018-07-17T00:21:08.218Z,789.36
2018-07-17T00:21:12.422Z,789.36
2018-07-17T00:21:16.529Z,789.34
2018-07-17T00:21:20.736Z,789.36
2018-07-17T00:21:25.047Z,789.34
2018-07-17T00:21:29.357Z,789.34
2018-07-17T00:21:33.584Z,789.34
2018-07-17T00:21:37.785Z,789.34
2018-07-17T00:21:42.099Z,789.32
2018-07-17T00:21:46.197Z,789.32
2018-07-17T00:21:50.519Z,789.35
2018-07-17T00:21:54.416Z,789.35
2018-07-17T00:21:58.787Z,789.33
2018-07-17T00:22:02.995Z,789.33
2018-07-17T00:22:07.193Z,789.32
2018-07-17T00:22:11.290Z,789.32
2018-07-17T00:22:15.600Z,789.31
2018-07-17T00:22:19.816Z,789.36
2018-07-17T00:22:23.964Z,789.32
2018-07-17T00:22:28.171Z,789.35
2018-07-17T00:22:32.277Z,789.34
2018-07-17T00:22:36.544Z,789.32
2018-07-17T00:22:40.647Z,789.32
2018-07-17T00:22:44.745Z,789.31
2018-07-17T00:22:48.950Z,789.29
2018-07-17T00:22:53.043Z,789.32
2018-07-17T00:22:57.043Z,789.33
2018-07-17T00:23:00.939Z,789.27
2018-07-17T00:23:05.346Z,789.31
2018-07-17T00:23:09.445Z,789.33
2018-07-17T00:23:13.643Z,789.3
2018-07-17T00:23:17.854Z,789.31
2018-07-17T00:23:22.164Z,789.25
2018-07-17T00:23:26.368Z,789.31
2018-07-17T00:23:30.677Z,789.26
2018-07-17T00:23:34.769Z,789.3
2018-07-17T00:23:39.072Z,789.3
2018-07-17T00:23:43.377Z,789.32
2018-07-17T00:23:47.580Z,789.26
2018-07-17T00:23:51.788Z,789.32
2018-07-17T00:23:56.104Z,789.3
2018-07-17T00:24:00.308Z,789.29
2018-07-17T00:24:04.510Z,789.3
2018-07-17T00:24:08.719Z,789.32
2018-07-17T00:24:13.040Z,789.31
2018-07-17T00:24:17.245Z,789.32
2018-07-17T00:24:21.449Z,789.31
2018-07-17T00:24:25.551Z,789.29
2018-07-17T00:24:29.434Z,789.31
2018-07-17T00:24:33.637Z,789.31
2018-07-17T00:24:37.833Z,789.29
2018-07-17T00:24:41.935Z,789.34
2018-07-17T00:24:46.193Z,789.32
2018-07-17T00:24:50.293Z,789.31
2018-07-17T00:24:54.606Z,789.25
2018-07-17T00:24:58.808Z,789.28
2018-07-17T00:25:02.915Z,789.26
2018-07-17T00:25:07.124Z,789.27
2018-07-17T00:25:11.221Z,789.29
2018-07-17T00:25:15.537Z,789.31
2018-07-17T00:25:19.738Z,789.3
2018-07-17T00:25:23.944Z,789.32
2018-07-17T00:25:28.149Z,789.29
2018-07-17T00:25:32.467Z,789.3
2018-07-17T00:25:36.781Z,789.29
2018-07-17T00:25:41.099Z,789.29
2018-07-17T00:25:45.410Z,789.3
2018-07-17T00:25:49.401Z,789.3
2018-07-17T00:25:53.713Z,789.26
2018-07-17T00:25:57.702Z,789.27
2018-07-17T00:26:01.911Z,789.28
2018-07-17T00:26:06.122Z,789.27
2018-07-17T00:26:10.216Z,789.28
2018-07-17T00:26:14.413Z,789.29
2018-07-17T00:26:18.731Z,789.29
2018-07-17T00:26:23.049Z,789.25
2018-07-17T00:26:27.260Z,789.27
2018-07-17T00:26:31.582Z,789.26
2018-07-17T00:26:35.783Z,789.23
2018-07-17T00:26:39.989Z,789.3
2018-07-17T00:26:44.208Z,789.29
2018-07-17T00:26:48.295Z,789.26
2018-07-17T00:26:52.389Z,789.28
2018-07-17T00:26:56.639Z,789.26
2018-07-17T00:27:00.943Z,789.26
2018-07-17T00:27:05.148Z,789.28
2018-07-17T00:27:09.034Z,789.25
2018-07-17T00:27:13.125Z,789.25
2018-07-17T00:27:17.322Z,789.28
2018-07-17T00:27:21.666Z,789.24
2018-07-17T00:27:25.861Z,789.25
2018-07-17T00:27:30.175Z,789.24
2018-07-17T00:27:34.485Z,789.23
2018-07-17T00:27:38.692Z,789.24
2018-07-17T00:27:42.894Z,789.27
2018-07-17T00:27:47.200Z,789.24
2018-07-17T00:27:51.512Z,789.27
2018-07-17T00:27:55.825Z,789.29
2018-07-17T00:28:00.032Z,789.25
2018-07-17T00:28:04.134Z,789.23
2018-07-17T00:28:08.049Z,789.25
2018-07-17T00:28:12.155Z,789.24
2018-07-17T00:28:16.250Z,789.24
2018-07-17T00:28:20.565Z,789.28
2018-07-17T00:28:24.663Z,789.27
2018-07-17T00:28:28.975Z,789.28
2018-07-17T00:28:33.175Z,789.29
2018-07-17T00:28:37.162Z,789.3
2018-07-17T00:28:41.373Z,789.26
2018-07-17T00:28:45.696Z,789.29
2018-07-17T00:28:49.975Z,789.26
2018-07-17T00:28:54.287Z,789.28
2018-07-17T00:28:58.377Z,789.28
2018-07-17T00:29:02.683Z,789.29
2018-07-17T00:29:06.996Z,789.27
2018-07-17T00:29:11.096Z,789.25
2018-07-17T00:29:15.299Z,789.29
2018-07-17T00:29:19.182Z,789.26
2018-07-17T00:29:23.494Z,789.27
2018-07-17T00:29:27.730Z,789.25
2018-07-17T00:29:31.891Z,789.25
2018-07-17T00:29:35.881Z,789.22
2018-07-17T00:29:40.078Z,789.27
2018-07-17T00:29:44.384Z,789.29
2018-07-17T00:29:48.486Z,789.27
2018-07-17T00:29:52.800Z,789.29
2018-07-17T00:29:56.887Z,789.27
2018-07-17T00:30:01.195Z,789.25
2018-07-17T00:30:05.288Z,789.27
2018-07-17T00:30:09.402Z,789.27
2018-07-17T00:30:13.503Z,789.26
2018-07-17T00:30:17.716Z,789.26
2018-07-17T00:30:21.927Z,789.29
2018-07-17T00:30:26.234Z,789.27
2018-07-17T00:30:30.332Z,789.28
2018-07-17T00:30:34.653Z,789.23
2018-07-17T00:30:38.753Z,789.26
2018-07-17T00:30:42.740Z,789.29
2018-07-17T00:30:46.735Z,789.2
2018-07-17T00:30:50.831Z,789.24
2018-07-17T00:30:55.037Z,789.28
2018-07-17T00:30:59.352Z,789.3
2018-07-17T00:31:03.450Z,789.27
2018-07-17T00:31:07.767Z,789.31
2018-07-17T00:31:12.075Z,789.29
2018-07-17T00:31:16.381Z,789.27
2018-07-17T00:31:20.581Z,789.29
2018-07-17T00:31:24.565Z,789.29
2018-07-17T00:31:28.872Z,789.29
2018-07-17T00:31:33.180Z,789.31
2018-07-17T00:31:37.495Z,789.26
2018-07-17T00:31:41.483Z,789.3
2018-07-17T00:31:45.682Z,789.26
2018-07-17T00:31:50.023Z,789.29
2018-07-17T00:31:54.118Z,789.3
2018-07-17T00:31:58.325Z,789.25
2018-07-17T00:32:02.677Z,789.32
2018-07-17T00:32:06.879Z,789.28
2018-07-17T00:32:11.107Z,789.27
2018-07-17T00:32:15.098Z,789.28
2018-07-17T00:32:19.414Z,789.27
2018-07-17T00:32:23.519Z,789.29
2018-07-17T00:32:27.885Z,789.29
2018-07-17T00:32:31.980Z,789.3
2018-07-17T00:32:36.073Z,789.3
2018-07-17T00:32:40.282Z,789.3
2018-07-17T00:32:44.589Z,789.28
2018-07-17T00:32:48.797Z,789.27
2018-07-17T00:32:53.005Z,789.29
2018-07-17T00:32:57.219Z,789.33
2018-07-17T00:33:01.421Z,789.33
2018-07-17T00:33:05.545Z,789.28
2018-07-17T00:33:09.639Z,789.33
2018-07-17T00:33:13.986Z,789.3
2018-07-17T00:33:18.303Z,789.3
2018-07-17T00:33:22.616Z,789.3
2018-07-17T00:33:26.822Z,789.3
2018-07-17T00:33:31.033Z,789.3
2018-07-17T00:33:35.340Z,789.32
2018-07-17T00:33:39.646Z,789.34
2018-07-17T00:33:43.850Z,789.3
2018-07-17T00:33:48.163Z,789.31
2018-07-17T00:33:52.473Z,789.34
2018-07-17T00:33:56.567Z,789.3
2018-07-17T00:34:00.668Z,789.32
2018-07-17T00:34:05.083Z,789.29
2018-07-17T00:34:09.284Z,789.3
2018-07-17T00:34:13.591Z,789.29
2018-07-17T00:34:17.802Z,789.32
2018-07-17T00:34:22.005Z,789.32
2018-07-17T00:34:26.205Z,789.33
2018-07-17T00:34:30.515Z,789.32
2018-07-17T00:34:34.612Z,789.32
2018-07-17T00:34:38.708Z,789.29
2018-07-17T00:34:42.909Z,789.29
2018-07-17T00:34:47.114Z,789.31
2018-07-17T00:34:51.334Z,789.3
2018-07-17T00:34:55.439Z,789.29
2018-07-17T00:34:59.640Z,789.28
2018-07-17T00:35:03.633Z,789.32
2018-07-17T00:35:07.838Z,789.26
2018-07-17T00:35:11.938Z,789.29
2018-07-17T00:35:16.145Z,789.29
2018-07-17T00:35:20.451Z,789.28
2018-07-17T00:35:24.578Z,789.29
2018-07-17T00:35:28.572Z,789.27
2018-07-17T00:35:32.779Z,789.28
2018-07-17T00:35:37.091Z,789.29
2018-07-17T00:35:41.305Z,789.29
2018-07-17T00:35:45.515Z,789.26
2018-07-17T00:35:49.610Z,789.27
2018-07-17T00:35:53.813Z,789.23
2018-07-17T00:35:58.120Z,789.23
2018-07-17T00:36:02.217Z,789.23
2018-07-17T00:36:06.319Z,789.25
2018-07-17T00:36:10.423Z,789.24
2018-07-17T00:36:14.723Z,789.23
2018-07-17T00:36:18.919Z,789.23
2018-07-17T00:36:23.125Z,789.23
2018-07-17T00:36:27.430Z,789.16
2018-07-17T00:36:31.743Z,789.25
2018-07-17T00:36:35.944Z,789.2
2018-07-17T00:36:40.141Z,789.21
2018-07-17T00:36:44.452Z,789.23
2018-07-17T00:36:48.653Z,789.22
2018-07-17T00:36:52.861Z,789.2
2018-07-17T00:36:57.072Z,789.22
2018-07-17T00:37:01.482Z,789.18
2018-07-17T00:37:05.702Z,789.14
2018-07-17T00:37:09.937Z,789.21
2018-07-17T00:37:14.144Z,789.19
2018-07-17T00:37:18.382Z,789.2
2018-07-17T00:37:22.687Z,789.2
2018-07-17T00:37:26.690Z,789.14
2018-07-17T00:37:31.003Z,789.16
2018-07-17T00:37:35.312Z,789.11
2018-07-17T00:37:39.633Z,789.19
2018-07-17T00:37:43.950Z,789.14
2018-07-17T00:37:48.259Z,789.15
2018-07-17T00:37:52.457Z,789.15
2018-07-17T00:37:56.669Z,789.15
2018-07-17T00:38:00.974Z,789.17
2018-07-17T00:38:05.080Z,789.13
2018-07-17T00:38:09.332Z,789.15
2018-07-17T00:38:13.543Z,789.14
2018-07-17T00:38:17.851Z,789.12
2018-07-17T00:38:22.062Z,789.11
2018-07-17T00:38:26.262Z,789.13
2018-07-17T00:38:30.582Z,789.1
2018-07-17T00:38:34.680Z,789.13
2018-07-17T00:38:38.961Z,789.12
2018-07-17T00:38:43.179Z,789.11
2018-07-17T00:38:47.294Z,789.11
2018-07-17T00:38:51.518Z,789.14
2018-07-17T00:38:55.826Z,789.11
2018-07-17T00:38:59.813Z,789.11
2018-07-17T00:39:04.030Z,789.12
2018-07-17T00:39:08.125Z,789.12
2018-07-17T00:39:12.225Z,789.08
2018-07-17T00:39:16.424Z,789.09
2018-07-17T00:39:20.623Z,789.08
2018-07-17T00:39:24.934Z,789.07
2018-07-17T00:39:29.142Z,789.11
2018-07-17T00:39:33.452Z,789.11
2018-07-17T00:39:37.652Z,789.09
2018-07-17T00:39:41.755Z,789.12
2018-07-17T00:39:46.061Z,789.07
2018-07-17T00:39:50.053Z,789.1
2018-07-17T00:39:54.372Z,789.07
2018-07-17T00:39:58.690Z,789.08
2018-07-17T00:40:03.045Z,789.01
2018-07-17T00:40:07.249Z,789.08
2018-07-17T00:40:11.454Z,789.06
2018-07-17T00:40:15.662Z,789.04
2018-07-17T00:40:19.977Z,789.05
2018-07-17T00:40:24.293Z,789.03
2018-07-17T00:40:28.497Z,789.03
2018-07-17T00:40:32.696Z,789.04
2018-07-17T00:40:36.894Z,789.04
2018-07-17T00:40:41.223Z,789.04
2018-07-17T00:40:45.321Z,789.04
2018-07-17T00:40:49.638Z,789.07
2018-07-17T00:40:53.626Z,789.05
2018-07-17T00:40:57.672Z,789.01
2018-07-17T00:41:01.769Z,789.03
2018-07-17T00:41:05.653Z,789.03
2018-07-17T00:41:09.963Z,788.99
2018-07-17T00:41:14.057Z,789.01
2018-07-17T00:41:18.371Z,788.98
2018-07-17T00:41:22.464Z,788.95
2018-07-17T00:41:26.778Z,789.02
2018-07-17T00:41:30.981Z,788.96
2018-07-17T00:41:35.079Z,788.95
2018-07-17T00:41:39.381Z,788.96
2018-07-17T00:41:43.476Z,789.02
2018-07-17T00:41:47.778Z,789
2018-07-17T00:41:51.977Z,789.01
2018-07-17T00:41:56.177Z,788.99
2018-07-17T00:42:00.483Z,788.98
2018-07-17T00:42:04.470Z,789.01
2018-07-17T00:42:08.673Z,789.01
2018-07-17T00:42:12.890Z,789.01
2018-07-17T00:42:17.157Z,789.01
2018-07-17T00:42:21.257Z,789.02
2018-07-17T00:42:25.350Z,789.01
2018-07-17T00:42:29.554Z,789.02
2018-07-17T00:42:33.761Z,789.02
2018-07-17T00:42:38.068Z,789.01
2018-07-17T00:42:42.272Z,788.99
2018-07-17T00:42:46.582Z,788.94
2018-07-17T00:42:50.906Z,788.99
2018-07-17T00:42:55.004Z,788.99
2018-07-17T00:42:58.993Z,788.95
2018-07-17T00:43:03.304Z,789
2018-07-17T00:43:07.405Z,789.02
2018-07-17T00:43:11.606Z,788.98
2018-07-17T00:43:15.808Z,789
2018-07-17T00:43:20.013Z,788.97
2018-07-17T00:43:24.320Z,789.01
2018-07-17T00:43:28.412Z,788.98
2018-07-17T00:43:32.610Z,788.99
2018-07-17T00:43:36.924Z,789.02
2018-07-17T00:43:41.018Z,788.99
2018-07-17T00:43:45.322Z,788.98
2018-07-17T00:43:49.628Z,788.99
2018-07-17T00:43:53.824Z,789
2018-07-17T00:43:57.930Z,788.96
2018-07-17T00:44:02.018Z,789.01
2018-07-17T00:44:06.134Z,789.02
2018-07-17T00:44:10.400Z,788.99
2018-07-17T00:44:14.601Z,789.01
2018-07-17T00:44:18.694Z,789.02
2018-07-17T00:44:22.902Z,789.01
2018-07-17T00:44:27.026Z,789.03
2018-07-17T00:44:31.238Z,789
2018-07-17T00:44:35.443Z,789.03
2018-07-17T00:44:39.754Z,789.03
2018-07-17T00:44:44.079Z,789.02
2018-07-17T00:44:48.281Z,789.02
2018-07-17T00:44:52.624Z,789.03
2018-07-17T00:44:56.842Z,789.06
2018-07-17T00:45:01.009Z,789.02
2018-07-17T00:45:05.011Z,789.05
2018-07-17T00:45:09.323Z,789.01
2018-07-17T00:45:13.633Z,789.01
2018-07-17T00:45:17.937Z,789.04
2018-07-17T00:45:21.930Z,789.05
2018-07-17T00:45:26.134Z,789.02
2018-07-17T00:45:30.332Z,789.04
2018-07-17T00:45:34.644Z,789.04
2018-07-17T00:45:38.954Z,789.05
2018-07-17T00:45:43.271Z,789.06
2018-07-17T00:45:47.366Z,789
2018-07-17T00:45:51.352Z,789.03
2018-07-17T00:45:55.664Z,789.03
2018-07-17T00:45:59.763Z,789.03
2018-07-17T00:46:04.127Z,789.05
2018-07-17T00:46:08.222Z,789.04
2018-07-17T00:46:12.426Z,789.05
2018-07-17T00:46:16.623Z,789.01
2018-07-17T00:46:20.937Z,789.05
2018-07-17T00:46:25.143Z,789.04
2018-07-17T00:46:29.242Z,789.03
2018-07-17T00:46:33.458Z,789.04
2018-07-17T00:46:37.673Z,789.05
2018-07-17T00:46:41.880Z,789.1
2018-07-17T00:46:46.190Z,789.06
2018-07-17T00:46:50.516Z,789.05
2018-07-17T00:46:54.722Z,789.05
2018-07-17T00:46:59.098Z,789.04
2018-07-17T00:47:03.295Z,789.04
2018-07-17T00:47:07.501Z,789.01
2018-07-17T00:47:11.704Z,789.04
2018-07-17T00:47:16.010Z,789.08
2018-07-17T00:47:20.313Z,789.05
2018-07-17T00:47:24.411Z,789.07
2018-07-17T00:47:28.721Z,789.08
2018-07-17T00:47:33.045Z,789.05
2018-07-17T00:47:37.350Z,789.07
2018-07-17T00:47:41.555Z,789.05
2018-07-17T00:47:45.756Z,789.05
2018-07-17T00:47:50.060Z,789.06
2018-07-17T00:47:54.153Z,789.09
2018-07-17T00:47:58.143Z,789.05
2018-07-17T00:48:02.649Z,789.06
2018-07-17T00:48:06.923Z,789.07
2018-07-17T00:48:11.130Z,789.07
2018-07-17T00:48:15.490Z,789.08
2018-07-17T00:48:19.694Z,789.07
2018-07-17T00:48:23.895Z,789.08
2018-07-17T00:48:28.096Z,789.08
2018-07-17T00:48:32.306Z,789.08
2018-07-17T00:48:36.516Z,789.09
2018-07-17T00:48:40.615Z,789.05
2018-07-17T00:48:44.931Z,789.1
2018-07-17T00:48:49.134Z,789.1
2018-07-17T00:48:53.401Z,789.04
2018-07-17T00:48:57.494Z,789.05
2018-07-17T00:49:01.701Z,789.09
2018-07-17T00:49:05.797Z,789.04
2018-07-17T00:49:10.010Z,789.01
2018-07-17T00:49:14.108Z,789.08
2018-07-17T00:49:18.421Z,789.08
2018-07-17T00:49:22.633Z,789.04
2018-07-17T00:49:26.839Z,789.04
2018-07-17T00:49:30.946Z,789.03
2018-07-17T00:49:35.149Z,789.12
2018-07-17T00:49:39.467Z,789.09
2018-07-17T00:49:43.778Z,789.1
2018-07-17T00:49:47.984Z,789.07
2018-07-17T00:49:52.291Z,789.04
2018-07-17T00:49:56.638Z,789.05
2018-07-17T00:50:00.943Z,789.04
2018-07-17T00:50:04.830Z,789.07
2018-07-17T00:50:08.934Z,789.08
2018-07-17T00:50:13.142Z,789.06
2018-07-17T00:50:17.343Z,789.06
2018-07-17T00:50:21.663Z,789.09
2018-07-17T00:50:25.875Z,789.09
2018-07-17T00:50:30.079Z,789.09
2018-07-17T00:50:34.282Z,789.09
2018-07-17T00:50:38.480Z,789.12
2018-07-17T00:50:42.679Z,789.09
2018-07-17T00:50:46.882Z,789.11
2018-07-17T00:50:51.084Z,789.09
2018-07-17T00:50:55.389Z,789.11
2018-07-17T00:50:59.539Z,789.07
2018-07-17T00:51:03.316Z,789.09
2018-07-17T00:51:07.520Z,789.06
2018-07-17T00:51:11.830Z,789.08
2018-07-17T00:51:16.028Z,789.04
2018-07-17T00:51:20.231Z,789.07
2018-07-17T00:51:24.549Z,789.09
2018-07-17T00:51:28.757Z,789.11
2018-07-17T00:51:33.074Z,789.07
2018-07-17T00:51:37.279Z,789.09
2018-07-17T00:51:41.378Z,789.08
2018-07-17T00:51:45.366Z,789.08
2018-07-17T00:51:49.564Z,789.06
2018-07-17T00:51:53.874Z,789.09
2018-07-17T00:51:57.981Z,789.05
2018-07-17T00:52:02.303Z,789.05
2018-07-17T00:52:06.510Z,789.08
2018-07-17T00:52:10.726Z,789.08
2018-07-17T00:52:14.954Z,789.08
2018-07-17T00:52:19.274Z,789.05
2018-07-17T00:52:23.476Z,789.04
2018-07-17T00:52:27.784Z,789.04
2018-07-17T00:52:31.881Z,789.09
2018-07-17T00:52:36.083Z,789.05
2018-07-17T00:52:40.397Z,789.04